Pagina principale
METAR-TAF:

METAR-TAF

Aeroporti :

Belize City, Belize

Aeroporto Internazionale Philip S. W. Goldson

latitudine: 17-32N, longitudine: 088-18W, altezza: 5 m

Osservazione

Il bollettino è stato emesso 57 minuti fa, alle 16:00 UTC
Vento 5 kt da nord
Temperature 23°C
Umidità 78%
Pressione 1022 hPa
Visibilità 10 km o più
Poco nuvoloso ad un'altezza di 4500 ft

METAR: MZBZ 191600Z 01005KT 9999 FEW045 23/19 A3018 Q1022 NOSIG

Ora: 10:57 (16:57 UTC)

Previsione

Il bollettino è stato emesso 7 ore e 57 minuti fa, alle 09:00 UTC
Previsione valida dal 19 alle 12 UTC al 20 alle 12 UTC
Vento 10 kt da nord-est
Visibilità 10 km o più
Nubi sparse ad un'altezza di 2000 ft
Nubi sparse ad un'altezza di 4500 ft
Probabilità 30% :
Temporaneamente
dal 19 alle 12 UTC al 19 alle 18 UTC
Visibilità: 4000 m
Nuvoloso ad un'altezza di 800 ft
Nuvoloso ad un'altezza di 4000 ft
pioggia

TAF: MZBZ 190900Z 1912/2012 04010KT 9999 SCT020 SCT045 PROB30 TEMPO 1912/1918 4000 RA BKN008 BKN040

Osservazioni e previsioni meteorologiche di più di 4000 aeroporti (messaggi METAR e TAF).

Le stazioni disponibili sono rappresentate dai dischi gialli e rossi sulla carta.

Puntare il mouse per vedere il nome della stazione.

Clicca sopra per visualizzare le osservazioni e previsioni meteorologiche.

Per cambiare la mappa : fare clic sui pulsanti verdi con una croce nera per ingrandire, il pulsante verde con un trattino per diminuire, o sulla freccia verde per le mappe adiacenti.


METAR-TAF: